sensor_id;sensor_type;location;lat;lon;timestamp;pressure;altitude;pressure_sealevel;temperature;humidity
6218;BME280;3142;48.206;11.550;2023-02-19T00:01:32;96195.13;;;12.51;61.36
6218;BME280;3142;48.206;11.550;2023-02-19T00:04:01;96207.03;;;12.53;61.01
6218;BME280;3142;48.206;11.550;2023-02-19T00:06:30;96195.75;;;12.53;60.52
6218;BME280;3142;48.206;11.550;2023-02-19T00:08:56;96195.94;;;12.51;61.60
6218;BME280;3142;48.206;11.550;2023-02-19T00:11:26;96198.34;;;12.53;61.02
6218;BME280;3142;48.206;11.550;2023-02-19T00:13:54;96193.72;;;12.48;61.50
6218;BME280;3142;48.206;11.550;2023-02-19T00:16:24;96192.06;;;12.47;60.77
6218;BME280;3142;48.206;11.550;2023-02-19T00:18:50;96178.56;;;12.50;61.56
6218;BME280;3142;48.206;11.550;2023-02-19T00:21:17;96187.66;;;12.48;60.78
6218;BME280;3142;48.206;11.550;2023-02-19T00:23:47;96176.72;;;12.44;62.25
6218;BME280;3142;48.206;11.550;2023-02-19T00:26:14;96181.78;;;12.45;61.57
6218;BME280;3142;48.206;11.550;2023-02-19T00:28:42;96184.41;;;12.45;61.08
6218;BME280;3142;48.206;11.550;2023-02-19T00:31:14;96181.78;;;12.45;61.64
6218;BME280;3142;48.206;11.550;2023-02-19T00:33:41;96180.38;;;12.43;61.90
6218;BME280;3142;48.206;11.550;2023-02-19T00:36:08;96178.97;;;12.40;62.24
6218;BME280;3142;48.206;11.550;2023-02-19T00:38:36;96180.78;;;12.40;61.86
6218;BME280;3142;48.206;11.550;2023-02-19T00:41:03;96175.94;;;12.43;61.83
6218;BME280;3142;48.206;11.550;2023-02-19T00:43:45;96159.56;;;12.41;62.23
6218;BME280;3142;48.206;11.550;2023-02-19T00:46:11;96161.59;;;12.46;61.04
6218;BME280;3142;48.206;11.550;2023-02-19T00:48:38;96167.25;;;12.43;61.88
6218;BME280;3142;48.206;11.550;2023-02-19T00:51:05;96157.75;;;12.42;61.62
6218;BME280;3142;48.206;11.550;2023-02-19T00:53:31;96159.78;;;12.40;62.31
6218;BME280;3142;48.206;11.550;2023-02-19T00:55:58;96158.56;;;12.42;62.48
6218;BME280;3142;48.206;11.550;2023-02-19T00:58:24;96152.09;;;12.45;62.10
6218;BME280;3142;48.206;11.550;2023-02-19T01:00:52;96149.28;;;12.40;62.43
6218;BME280;3142;48.206;11.550;2023-02-19T01:03:19;96151.09;;;12.39;61.73
6218;BME280;3142;48.206;11.550;2023-02-19T01:05:46;96158.97;;;12.39;62.12
6218;BME280;3142;48.206;11.550;2023-02-19T01:08:13;96149.47;;;12.38;62.28
6218;BME280;3142;48.206;11.550;2023-02-19T01:10:39;96145.03;;;12.39;61.90
6218;BME280;3142;48.206;11.550;2023-02-19T01:13:05;96147.28;;;12.35;62.35
6218;BME280;3142;48.206;11.550;2023-02-19T01:15:32;96144.25;;;12.38;62.43
6218;BME280;3142;48.206;11.550;2023-02-19T01:18:00;96136.56;;;12.37;62.02
6218;BME280;3142;48.206;11.550;2023-02-19T01:20:27;96143.44;;;12.38;61.83
6218;BME280;3142;48.206;11.550;2023-02-19T01:22:53;96142.81;;;12.36;62.46
6218;BME280;3142;48.206;11.550;2023-02-19T01:25:20;96138.38;;;12.36;61.88
6218;BME280;3142;48.206;11.550;2023-02-19T01:27:46;96134.75;;;12.37;61.68
6218;BME280;3142;48.206;11.550;2023-02-19T01:30:13;96130.72;;;12.35;62.88
6218;BME280;3142;48.206;11.550;2023-02-19T01:32:39;96129.31;;;12.39;61.93
6218;BME280;3142;48.206;11.550;2023-02-19T01:35:07;96134.16;;;12.35;61.70
6218;BME280;3142;48.206;11.550;2023-02-19T01:37:33;96128.28;;;12.40;62.43
6218;BME280;3142;48.206;11.550;2023-02-19T01:40:00;96131.91;;;12.39;62.27
6218;BME280;3142;48.206;11.550;2023-02-19T01:42:26;96120.22;;;12.35;62.14
6218;BME280;3142;48.206;11.550;2023-02-19T01:45:24;96114.56;;;12.38;61.74
6218;BME280;3142;48.206;11.550;2023-02-19T01:47:55;96123.66;;;12.35;62.15
6218;BME280;3142;48.206;11.550;2023-02-19T01:50:27;96122.22;;;12.39;62.39
6218;BME280;3142;48.206;11.550;2023-02-19T01:52:55;96110.13;;;12.38;62.40
6218;BME280;3142;48.206;11.550;2023-02-19T01:55:22;96113.94;;;12.42;61.70
6218;BME280;3142;48.206;11.550;2023-02-19T01:57:51;96103.47;;;12.36;62.74
6218;BME280;3142;48.206;11.550;2023-02-19T02:00:19;96096.97;;;12.32;62.08
6218;BME280;3142;48.206;11.550;2023-02-19T02:02:50;96109.72;;;12.35;62.00
6218;BME280;3142;48.206;11.550;2023-02-19T02:05:27;96112.53;;;12.33;62.20
6218;BME280;3142;48.206;11.550;2023-02-19T02:07:56;96102.44;;;12.30;62.45
6218;BME280;3142;48.206;11.550;2023-02-19T02:10:42;96094.16;;;12.27;62.97
6218;BME280;3142;48.206;11.550;2023-02-19T02:13:08;96101.84;;;12.28;64.29
6218;BME280;3142;48.206;11.550;2023-02-19T02:15:39;96088.91;;;12.27;63.56
6218;BME280;3142;48.206;11.550;2023-02-19T02:18:14;96090.34;;;12.23;64.17
6218;BME280;3142;48.206;11.550;2023-02-19T02:21:03;96093.34;;;12.20;63.37
6218;BME280;3142;48.206;11.550;2023-02-19T02:23:39;96085.25;;;12.14;63.29
6218;BME280;3142;48.206;11.550;2023-02-19T02:26:21;96086.47;;;12.12;64.11
6218;BME280;3142;48.206;11.550;2023-02-19T02:29:07;96091.53;;;12.13;64.35
6218;BME280;3142;48.206;11.550;2023-02-19T02:31:42;96091.31;;;12.15;64.35
6218;BME280;3142;48.206;11.550;2023-02-19T02:34:13;96074.97;;;12.06;64.68
6218;BME280;3142;48.206;11.550;2023-02-19T02:36:43;96074.97;;;12.06;64.42
6218;BME280;3142;48.206;11.550;2023-02-19T02:39:12;96077.16;;;12.03;64.68
6218;BME280;3142;48.206;11.550;2023-02-19T02:41:41;96064.25;;;12.01;64.35
6218;BME280;3142;48.206;11.550;2023-02-19T02:44:08;96061.03;;;11.99;64.61
6218;BME280;3142;48.206;11.550;2023-02-19T02:46:37;96077.38;;;11.95;64.71
6218;BME280;3142;48.206;11.550;2023-02-19T02:49:11;96065.28;;;11.94;64.73
6218;BME280;3142;48.206;11.550;2023-02-19T02:51:42;96061.25;;;11.98;64.51
6218;BME280;3142;48.206;11.550;2023-02-19T02:54:13;96067.66;;;11.89;66.27
6218;BME280;3142;48.206;11.550;2023-02-19T02:56:59;96060.81;;;11.81;68.32
6218;BME280;3142;48.206;11.550;2023-02-19T02:59:29;96061.56;;;11.68;69.23
6218;BME280;3142;48.206;11.550;2023-02-19T03:02:00;96053.84;;;11.60;70.64
6218;BME280;3142;48.206;11.550;2023-02-19T03:04:43;96072.41;;;11.58;70.98
6218;BME280;3142;48.206;11.550;2023-02-19T03:07:28;96051.19;;;11.47;71.60
6218;BME280;3142;48.206;11.550;2023-02-19T03:09:59;96045.75;;;11.42;72.56
6218;BME280;3142;48.206;11.550;2023-02-19T03:12:28;96044.06;;;11.27;73.29
6218;BME280;3142;48.206;11.550;2023-02-19T03:15:15;96049.06;;;11.16;73.95
6218;BME280;3142;48.206;11.550;2023-02-19T03:18:02;96037.34;;;11.12;75.56
6218;BME280;3142;48.206;11.550;2023-02-19T03:20:50;96035.69;;;11.04;75.91
6218;BME280;3142;48.206;11.550;2023-02-19T03:23:19;96035.91;;;11.03;77.02
6218;BME280;3142;48.206;11.550;2023-02-19T03:26:08;96032.25;;;10.97;77.03
6218;BME280;3142;48.206;11.550;2023-02-19T03:28:35;96033.06;;;10.97;77.10
6218;BME280;3142;48.206;11.550;2023-02-19T03:31:23;96048.94;;;10.96;77.09
6218;BME280;3142;48.206;11.550;2023-02-19T03:33:57;96032.25;;;10.97;76.98
6218;BME280;3142;48.206;11.550;2023-02-19T03:36:31;96023.34;;;10.91;77.47
6218;BME280;3142;48.206;11.550;2023-02-19T03:39:02;96037.44;;;10.90;77.60
6218;BME280;3142;48.206;11.550;2023-02-19T03:41:32;96032.41;;;10.95;77.37
6218;BME280;3142;48.206;11.550;2023-02-19T03:44:06;96031.00;;;10.93;78.17
6218;BME280;3142;48.206;11.550;2023-02-19T03:46:42;96025.97;;;10.91;78.08
6218;BME280;3142;48.206;11.550;2023-02-19T03:49:15;96044.06;;;10.86;78.44
6218;BME280;3142;48.206;11.550;2023-02-19T03:51:50;96034.53;;;10.79;78.32
6218;BME280;3142;48.206;11.550;2023-02-19T03:54:26;96057.69;;;10.75;78.55
6218;BME280;3142;48.206;11.550;2023-02-19T03:57:00;96024.66;;;10.74;78.37
6218;BME280;3142;48.206;11.550;2023-02-19T03:59:32;96049.16;;;10.66;78.47
6218;BME280;3142;48.206;11.550;2023-02-19T04:02:01;96063.06;;;10.67;78.33
6218;BME280;3142;48.206;11.550;2023-02-19T04:04:32;96040.69;;;10.64;78.45
6218;BME280;3142;48.206;11.550;2023-02-19T04:07:02;96035.84;;;10.61;78.93
6218;BME280;3142;48.206;11.550;2023-02-19T04:09:33;96035.63;;;10.56;78.84
6218;BME280;3142;48.206;11.550;2023-02-19T04:12:02;96037.25;;;10.57;78.86
6218;BME280;3142;48.206;11.550;2023-02-19T04:14:31;96031.41;;;10.55;78.63
6218;BME280;3142;48.206;11.550;2023-02-19T04:17:06;96027.91;;;10.48;78.59
6218;BME280;3142;48.206;11.550;2023-02-19T04:19:36;96017.25;;;10.50;78.26
6218;BME280;3142;48.206;11.550;2023-02-19T04:22:07;96037.56;;;10.48;78.71
6218;BME280;3142;48.206;11.550;2023-02-19T04:24:37;96043.19;;;10.45;78.73
6218;BME280;3142;48.206;11.550;2023-02-19T04:27:07;96039.31;;;10.41;78.92
6218;BME280;3142;48.206;11.550;2023-02-19T04:29:34;96033.13;;;10.42;79.33
6218;BME280;3142;48.206;11.550;2023-02-19T04:32:01;96011.00;;;10.44;78.89
6218;BME280;3142;48.206;11.550;2023-02-19T04:34:27;96020.59;;;10.37;78.91
6218;BME280;3142;48.206;11.550;2023-02-19T04:36:54;96033.13;;;10.42;78.68
6218;BME280;3142;48.206;11.550;2023-02-19T04:39:21;96044.94;;;10.37;78.31
6218;BME280;3142;48.206;11.550;2023-02-19T04:41:48;96043.94;;;10.38;78.57
6218;BME280;3142;48.206;11.550;2023-02-19T04:44:14;96038.69;;;10.38;78.63
6218;BME280;3142;48.206;11.550;2023-02-19T04:46:41;96046.53;;;10.38;78.07
6218;BME280;3142;48.206;11.550;2023-02-19T04:49:07;96033.13;;;10.42;77.58
6218;BME280;3142;48.206;11.550;2023-02-19T04:51:33;96048.34;;;10.38;77.90
6218;BME280;3142;48.206;11.550;2023-02-19T04:54:00;96052.16;;;10.35;77.85
6218;BME280;3142;48.206;11.550;2023-02-19T04:56:28;96054.84;;;10.42;77.58
6218;BME280;3142;48.206;11.550;2023-02-19T04:58:54;96042.31;;;10.37;77.27
6218;BME280;3142;48.206;11.550;2023-02-19T05:01:21;96044.53;;;10.41;77.48
6218;BME280;3142;48.206;11.550;2023-02-19T05:03:47;96055.66;;;10.43;77.22
6218;BME280;3142;48.206;11.550;2023-02-19T05:06:13;96050.22;;;10.44;76.79
6218;BME280;3142;48.206;11.550;2023-02-19T05:08:40;96053.66;;;10.45;77.40
6218;BME280;3142;48.206;11.550;2023-02-19T05:11:09;96039.56;;;10.46;77.26
6218;BME280;3142;48.206;11.550;2023-02-19T05:13:38;96040.13;;;10.41;76.87
6218;BME280;3142;48.206;11.550;2023-02-19T05:16:06;96055.28;;;10.46;77.03
6218;BME280;3142;48.206;11.550;2023-02-19T05:18:33;96048.81;;;10.42;76.57
6218;BME280;3142;48.206;11.550;2023-02-19T05:21:00;96049.66;;;10.49;76.47
6218;BME280;3142;48.206;11.550;2023-02-19T05:23:27;96045.81;;;10.45;76.39
6218;BME280;3142;48.206;11.550;2023-02-19T05:25:53;96054.19;;;10.40;76.97
6218;BME280;3142;48.206;11.550;2023-02-19T05:28:20;96057.63;;;10.41;76.40
6218;BME280;3142;48.206;11.550;2023-02-19T05:30:55;96054.19;;;10.40;76.66
6218;BME280;3142;48.206;11.550;2023-02-19T05:33:24;96069.28;;;10.38;76.72
6218;BME280;3142;48.206;11.550;2023-02-19T05:35:52;96070.91;;;10.39;77.07
6218;BME280;3142;48.206;11.550;2023-02-19T05:38:19;96071.16;;;10.44;76.47
6218;BME280;3142;48.206;11.550;2023-02-19T05:40:46;96075.00;;;10.48;76.53
6218;BME280;3142;48.206;11.550;2023-02-19T05:43:13;96073.19;;;10.49;76.36
6218;BME280;3142;48.206;11.550;2023-02-19T05:45:39;96081.03;;;10.49;76.67
6218;BME280;3142;48.206;11.550;2023-02-19T05:48:07;96087.50;;;10.53;76.17
6218;BME280;3142;48.206;11.550;2023-02-19T05:50:35;96087.31;;;10.54;75.74
6218;BME280;3142;48.206;11.550;2023-02-19T05:53:03;96088.97;;;10.55;76.01
6218;BME280;3142;48.206;11.550;2023-02-19T05:55:33;96094.34;;;10.54;76.24
6218;BME280;3142;48.206;11.550;2023-02-19T05:58:01;96094.34;;;10.54;75.97
6218;BME280;3142;48.206;11.550;2023-02-19T06:00:27;96084.53;;;10.56;76.14
6218;BME280;3142;48.206;11.550;2023-02-19T06:02:54;96084.69;;;10.54;75.35
6218;BME280;3142;48.206;11.550;2023-02-19T06:05:22;96085.50;;;10.55;75.92
6218;BME280;3142;48.206;11.550;2023-02-19T06:07:48;96086.09;;;10.50;76.28
6218;BME280;3142;48.206;11.550;2023-02-19T06:10:16;96092.50;;;10.48;76.20
6218;BME280;3142;48.206;11.550;2023-02-19T06:12:42;96090.09;;;10.46;76.03
6218;BME280;3142;48.206;11.550;2023-02-19T06:15:09;96095.13;;;10.48;76.01
6218;BME280;3142;48.206;11.550;2023-02-19T06:17:35;96101.78;;;10.50;75.48
6218;BME280;3142;48.206;11.550;2023-02-19T06:20:02;96099.97;;;10.51;75.51
6218;BME280;3142;48.206;11.550;2023-02-19T06:22:30;96102.19;;;10.54;75.29
6218;BME280;3142;48.206;11.550;2023-02-19T06:24:56;96100.59;;;10.53;74.97
6218;BME280;3142;48.206;11.550;2023-02-19T06:27:22;96102.41;;;10.52;74.86
6218;BME280;3142;48.206;11.550;2023-02-19T06:29:49;96103.66;;;10.56;74.44
6218;BME280;3142;48.206;11.550;2023-02-19T06:32:15;96111.66;;;10.55;74.37
6218;BME280;3142;48.206;11.550;2023-02-19T06:34:42;96113.25;;;10.49;74.79
6218;BME280;3142;48.206;11.550;2023-02-19T06:37:08;96109.81;;;10.49;74.79
6218;BME280;3142;48.206;11.550;2023-02-19T06:39:36;96110.81;;;10.48;75.18
6218;BME280;3142;48.206;11.550;2023-02-19T06:42:03;96114.47;;;10.53;75.06
6218;BME280;3142;48.206;11.550;2023-02-19T06:44:29;96119.59;;;10.61;74.58
6218;BME280;3142;48.206;11.550;2023-02-19T06:46:56;96126.56;;;10.54;74.60
6218;BME280;3142;48.206;11.550;2023-02-19T06:49:22;96122.38;;;10.60;74.17
6218;BME280;3142;48.206;11.550;2023-02-19T06:51:49;96126.38;;;10.56;74.73
6218;BME280;3142;48.206;11.550;2023-02-19T06:54:15;96140.50;;;10.61;74.25
6218;BME280;3142;48.206;11.550;2023-02-19T06:56:43;96144.56;;;10.64;74.45
6218;BME280;3142;48.206;11.550;2023-02-19T06:59:11;96154.03;;;10.65;74.27
6218;BME280;3142;48.206;11.550;2023-02-19T07:01:38;96140.56;;;10.68;74.17
6218;BME280;3142;48.206;11.550;2023-02-19T07:04:05;96159.06;;;10.66;74.38
6218;BME280;3142;48.206;11.550;2023-02-19T07:06:33;96165.91;;;10.67;74.35
6218;BME280;3142;48.206;11.550;2023-02-19T07:09:00;96159.53;;;10.70;74.13
6218;BME280;3142;48.206;11.550;2023-02-19T07:11:29;96168.78;;;10.73;73.95
6218;BME280;3142;48.206;11.550;2023-02-19T07:14:00;96164.09;;;10.68;74.48
6218;BME280;3142;48.206;11.550;2023-02-19T07:16:26;96179.25;;;10.73;74.62
6218;BME280;3142;48.206;11.550;2023-02-19T07:18:55;96166.19;;;10.73;74.33
6218;BME280;3142;48.206;11.550;2023-02-19T07:21:22;96180.50;;;10.77;74.27
6218;BME280;3142;48.206;11.550;2023-02-19T07:23:49;96172.25;;;10.80;74.11
6218;BME280;3142;48.206;11.550;2023-02-19T07:26:16;96176.06;;;10.77;74.02
6218;BME280;3142;48.206;11.550;2023-02-19T07:28:44;96171.06;;;10.82;73.91
6218;BME280;3142;48.206;11.550;2023-02-19T07:31:13;96175.13;;;10.85;74.02
6218;BME280;3142;48.206;11.550;2023-02-19T07:33:41;96174.88;;;10.80;74.45
6218;BME280;3142;48.206;11.550;2023-02-19T07:36:08;96191.56;;;10.79;74.24
6218;BME280;3142;48.206;11.550;2023-02-19T07:38:34;96198.25;;;10.81;73.97
6218;BME280;3142;48.206;11.550;2023-02-19T07:41:02;96196.00;;;10.78;74.28
6218;BME280;3142;48.206;11.550;2023-02-19T07:43:30;96208.56;;;10.83;74.30
6218;BME280;3142;48.206;11.550;2023-02-19T07:45:57;96205.84;;;10.76;74.64
6218;BME280;3142;48.206;11.550;2023-02-19T07:48:25;96209.47;;;10.75;75.00
6218;BME280;3142;48.206;11.550;2023-02-19T07:50:52;96227.41;;;10.78;74.99
6218;BME280;3142;48.206;11.550;2023-02-19T07:53:19;96218.94;;;10.76;75.30
6218;BME280;3142;48.206;11.550;2023-02-19T07:55:46;96226.78;;;10.76;75.82
6218;BME280;3142;48.206;11.550;2023-02-19T07:58:13;96227.28;;;10.65;76.73
6218;BME280;3142;48.206;11.550;2023-02-19T08:00:39;96236.13;;;10.64;77.35
6218;BME280;3142;48.206;11.550;2023-02-19T08:03:06;96244.41;;;10.67;77.99
6218;BME280;3142;48.206;11.550;2023-02-19T08:05:35;96254.72;;;10.69;77.66
6218;BME280;3142;48.206;11.550;2023-02-19T08:08:04;96251.09;;;10.70;77.48
6218;BME280;3142;48.206;11.550;2023-02-19T08:10:31;96251.34;;;10.75;77.39
6218;BME280;3142;48.206;11.550;2023-02-19T08:13:15;96254.78;;;10.76;76.74
6218;BME280;3142;48.206;11.550;2023-02-19T08:15:47;96260.63;;;10.78;76.71
6218;BME280;3142;48.206;11.550;2023-02-19T08:18:15;96262.81;;;10.74;76.70
6218;BME280;3142;48.206;11.550;2023-02-19T08:20:44;96258.00;;;10.78;76.74
6218;BME280;3142;48.206;11.550;2023-02-19T08:23:10;96253.19;;;10.81;76.51
6218;BME280;3142;48.206;11.550;2023-02-19T08:25:38;96260.91;;;10.83;76.49
6218;BME280;3142;48.206;11.550;2023-02-19T08:28:06;96257.53;;;10.89;75.55
6218;BME280;3142;48.206;11.550;2023-02-19T08:30:33;96258.75;;;10.93;74.86
6218;BME280;3142;48.206;11.550;2023-02-19T08:33:00;96262.81;;;10.95;75.06
6218;BME280;3142;48.206;11.550;2023-02-19T08:35:27;96260.88;;;11.04;74.41
6218;BME280;3142;48.206;11.550;2023-02-19T08:37:56;96262.28;;;11.07;74.57
6218;BME280;3142;48.206;11.550;2023-02-19T08:40:23;96277.53;;;11.46;73.37
6218;BME280;3142;48.206;11.550;2023-02-19T08:42:50;96256.16;;;11.49;72.73
6218;BME280;3142;48.206;11.550;2023-02-19T08:45:17;96264.22;;;11.47;71.69
6218;BME280;3142;48.206;11.550;2023-02-19T08:47:43;96273.88;;;11.75;70.42
6218;BME280;3142;48.206;11.550;2023-02-19T08:50:10;96277.50;;;12.50;68.22
6218;BME280;3142;48.206;11.550;2023-02-19T08:52:36;96277.56;;;12.15;68.39
6218;BME280;3142;48.206;11.550;2023-02-19T08:55:05;96275.22;;;11.92;68.78
6218;BME280;3142;48.206;11.550;2023-02-19T08:57:34;96269.00;;;11.93;68.08
6218;BME280;3142;48.206;11.550;2023-02-19T09:00:02;96279.84;;;11.90;67.54
6218;BME280;3142;48.206;11.550;2023-02-19T09:02:29;96276.75;;;12.14;67.38
6218;BME280;3142;48.206;11.550;2023-02-19T09:04:55;96313.38;;;13.10;64.70
6218;BME280;3142;48.206;11.550;2023-02-19T09:07:21;96285.94;;;13.26;64.24
6218;BME280;3142;48.206;11.550;2023-02-19T09:09:48;96316.69;;;13.32;63.54
6218;BME280;3142;48.206;11.550;2023-02-19T09:12:15;96281.91;;;13.43;62.66
6218;BME280;3142;48.206;11.550;2023-02-19T09:14:42;96312.81;;;13.28;63.75
6218;BME280;3142;48.206;11.550;2023-02-19T09:17:09;96287.50;;;12.94;62.94
6218;BME280;3142;48.206;11.550;2023-02-19T09:19:35;96315.72;;;12.65;64.06
6218;BME280;3142;48.206;11.550;2023-02-19T09:22:02;96298.94;;;12.19;63.55
6218;BME280;3142;48.206;11.550;2023-02-19T09:24:29;96313.63;;;11.78;63.84
6218;BME280;3142;48.206;11.550;2023-02-19T09:26:56;96308.66;;;11.55;64.02
6218;BME280;3142;48.206;11.550;2023-02-19T09:29:24;96309.25;;;11.57;63.85
6218;BME280;3142;48.206;11.550;2023-02-19T09:31:55;96312.56;;;11.66;63.23
6218;BME280;3142;48.206;11.550;2023-02-19T09:34:21;96312.19;;;11.97;62.26
6218;BME280;3142;48.206;11.550;2023-02-19T09:36:48;96322.25;;;11.72;61.98
6218;BME280;3142;48.206;11.550;2023-02-19T09:39:15;96327.72;;;11.77;61.64
6218;BME280;3142;48.206;11.550;2023-02-19T09:41:43;96334.78;;;11.77;61.35
6218;BME280;3142;48.206;11.550;2023-02-19T09:44:13;96336.38;;;11.71;61.12
6218;BME280;3142;48.206;11.550;2023-02-19T09:46:46;96337.28;;;11.57;62.69
6218;BME280;3142;48.206;11.550;2023-02-19T09:49:17;96344.22;;;11.43;62.71
6218;BME280;3142;48.206;11.550;2023-02-19T09:51:50;96350.78;;;11.33;62.53
6218;BME280;3142;48.206;11.550;2023-02-19T09:54:20;96339.78;;;11.22;61.87
6218;BME280;3142;48.206;11.550;2023-02-19T09:56:47;96332.50;;;11.18;62.62
6218;BME280;3142;48.206;11.550;2023-02-19T09:59:18;96327.84;;;11.13;61.53
6218;BME280;3142;48.206;11.550;2023-02-19T10:01:56;96328.06;;;11.18;61.48
6218;BME280;3142;48.206;11.550;2023-02-19T10:04:24;96334.25;;;11.81;60.71
6218;BME280;3142;48.206;11.550;2023-02-19T10:06:51;96316.53;;;12.72;58.51
6218;BME280;3142;48.206;11.550;2023-02-19T10:09:20;96322.13;;;13.90;56.07
6218;BME280;3142;48.206;11.550;2023-02-19T10:11:48;96312.31;;;14.81;53.53
6218;BME280;3142;48.206;11.550;2023-02-19T10:14:17;96325.34;;;15.39;52.20
6218;BME280;3142;48.206;11.550;2023-02-19T10:16:51;96326.00;;;15.85;51.63
6218;BME280;3142;48.206;11.550;2023-02-19T10:19:18;96317.75;;;16.36;49.55
6218;BME280;3142;48.206;11.550;2023-02-19T10:21:44;96299.66;;;16.21;48.37
6218;BME280;3142;48.206;11.550;2023-02-19T10:24:15;96320.81;;;16.15;48.29
6218;BME280;3142;48.206;11.550;2023-02-19T10:26:45;96330.25;;;16.47;48.32
6218;BME280;3142;48.206;11.550;2023-02-19T10:29:12;96318.78;;;16.53;48.09
6218;BME280;3142;48.206;11.550;2023-02-19T10:31:38;96333.47;;;16.49;47.46
6218;BME280;3142;48.206;11.550;2023-02-19T10:34:16;96331.28;;;16.46;48.06
6218;BME280;3142;48.206;11.550;2023-02-19T10:36:46;96330.44;;;16.09;49.55
6218;BME280;3142;48.206;11.550;2023-02-19T10:39:31;96330.53;;;15.46;50.24
6218;BME280;3142;48.206;11.550;2023-02-19T10:42:02;96337.41;;;15.54;49.76
6218;BME280;3142;48.206;11.550;2023-02-19T10:44:34;96335.66;;;15.41;49.94
6218;BME280;3142;48.206;11.550;2023-02-19T10:47:04;96341.84;;;14.97;50.07
6218;BME280;3142;48.206;11.550;2023-02-19T10:49:34;96320.72;;;14.59;50.83
6218;BME280;3142;48.206;11.550;2023-02-19T10:52:12;96312.06;;;14.38;50.68
6218;BME280;3142;48.206;11.550;2023-02-19T10:54:42;96321.09;;;14.69;49.31
6218;BME280;3142;48.206;11.550;2023-02-19T10:57:23;96318.25;;;14.70;48.80
6218;BME280;3142;48.206;11.550;2023-02-19T10:59:56;96326.03;;;14.90;48.76
6218;BME280;3142;48.206;11.550;2023-02-19T11:02:23;96317.56;;;15.45;47.36
6218;BME280;3142;48.206;11.550;2023-02-19T11:05:14;96316.16;;;15.17;48.23
6218;BME280;3142;48.206;11.550;2023-02-19T11:07:43;96304.63;;;15.93;46.45
6218;BME280;3142;48.206;11.550;2023-02-19T11:10:20;96297.28;;;15.45;46.38
6218;BME280;3142;48.206;11.550;2023-02-19T11:12:50;96310.94;;;14.72;47.61
6218;BME280;3142;48.206;11.550;2023-02-19T11:15:20;96307.84;;;14.31;48.79
6218;BME280;3142;48.206;11.550;2023-02-19T11:17:53;96305.00;;;15.15;47.78
6218;BME280;3142;48.206;11.550;2023-02-19T11:20:22;96307.09;;;15.06;48.18
6218;BME280;3142;48.206;11.550;2023-02-19T11:22:48;96313.34;;;15.12;47.92
6218;BME280;3142;48.206;11.550;2023-02-19T11:25:19;96313.56;;;14.72;48.73
6218;BME280;3142;48.206;11.550;2023-02-19T11:27:54;96313.66;;;15.29;47.30
6218;BME280;3142;48.206;11.550;2023-02-19T11:30:33;96312.63;;;14.98;48.08
6218;BME280;3142;48.206;11.550;2023-02-19T11:33:18;96328.91;;;14.44;49.11
6218;BME280;3142;48.206;11.550;2023-02-19T11:35:48;96320.69;;;14.01;49.39
6218;BME280;3142;48.206;11.550;2023-02-19T11:38:16;96328.59;;;13.68;50.92
6218;BME280;3142;48.206;11.550;2023-02-19T11:40:49;96346.41;;;13.39;52.01
6218;BME280;3142;48.206;11.550;2023-02-19T11:43:31;96336.63;;;13.13;51.89
6218;BME280;3142;48.206;11.550;2023-02-19T11:46:08;96336.56;;;12.80;52.96
6218;BME280;3142;48.206;11.550;2023-02-19T11:48:44;96339.34;;;12.65;51.13
6218;BME280;3142;48.206;11.550;2023-02-19T11:51:24;96331.28;;;12.73;51.67
6218;BME280;3142;48.206;11.550;2023-02-19T11:54:03;96350.25;;;13.30;49.79
6218;BME280;3142;48.206;11.550;2023-02-19T11:56:35;96346.50;;;12.98;51.20
6218;BME280;3142;48.206;11.550;2023-02-19T11:59:04;96345.44;;;12.79;51.25
6218;BME280;3142;48.206;11.550;2023-02-19T12:02:14;96346.16;;;12.53;51.80
6218;BME280;3142;48.206;11.550;2023-02-19T12:05:08;96342.53;;;12.54;51.93
6218;BME280;3142;48.206;11.550;2023-02-19T12:07:58;96338.50;;;12.58;52.01
6218;BME280;3142;48.206;11.550;2023-02-19T12:10:36;96346.91;;;12.47;52.90
6218;BME280;3142;48.206;11.550;2023-02-19T12:13:14;96342.94;;;12.58;53.58
6218;BME280;3142;48.206;11.550;2023-02-19T12:15:58;96346.59;;;12.63;53.60
6218;BME280;3142;48.206;11.550;2023-02-19T12:18:53;96353.09;;;12.74;52.90
6218;BME280;3142;48.206;11.550;2023-02-19T12:21:37;96342.63;;;12.87;53.25
6218;BME280;3142;48.206;11.550;2023-02-19T12:24:35;96346.25;;;12.86;53.72
6218;BME280;3142;48.206;11.550;2023-02-19T12:27:14;96344.84;;;12.84;53.87
6218;BME280;3142;48.206;11.550;2023-02-19T12:29:59;96352.31;;;12.87;53.68
6218;BME280;3142;48.206;11.550;2023-02-19T12:32:43;96363.59;;;12.74;53.35
6218;BME280;3142;48.206;11.550;2023-02-19T12:35:25;96366.34;;;12.59;53.55
6218;BME280;3142;48.206;11.550;2023-02-19T12:38:00;96372.59;;;12.52;53.64
6218;BME280;3142;48.206;11.550;2023-02-19T12:40:37;96382.69;;;12.55;53.87
6218;BME280;3142;48.206;11.550;2023-02-19T12:43:12;96375.19;;;12.45;53.70
6218;BME280;3142;48.206;11.550;2023-02-19T12:45:44;96384.19;;;12.29;54.42
6218;BME280;3142;48.206;11.550;2023-02-19T12:48:17;96381.38;;;12.03;55.22
6218;BME280;3142;48.206;11.550;2023-02-19T12:50:48;96375.69;;;11.93;55.00
6218;BME280;3142;48.206;11.550;2023-02-19T12:53:29;96372.81;;;11.88;54.30
6218;BME280;3142;48.206;11.550;2023-02-19T12:56:03;96374.91;;;11.77;54.43
6218;BME280;3142;48.206;11.550;2023-02-19T12:58:36;96383.47;;;11.79;54.07
6218;BME280;3142;48.206;11.550;2023-02-19T13:01:05;96387.38;;;11.69;54.34
6218;BME280;3142;48.206;11.550;2023-02-19T13:03:38;96386.09;;;11.79;53.93
6218;BME280;3142;48.206;11.550;2023-02-19T13:06:10;96390.75;;;11.84;54.21
6218;BME280;3142;48.206;11.550;2023-02-19T13:08:44;96389.16;;;11.90;54.27
6218;BME280;3142;48.206;11.550;2023-02-19T13:11:17;96375.81;;;11.84;54.85
6218;BME280;3142;48.206;11.550;2023-02-19T13:13:48;96377.06;;;11.89;54.83
6218;BME280;3142;48.206;11.550;2023-02-19T13:16:18;96385.72;;;11.89;55.10
6218;BME280;3142;48.206;11.550;2023-02-19T13:18:47;96385.94;;;11.88;55.38
6218;BME280;3142;48.206;11.550;2023-02-19T13:21:16;96384.53;;;11.92;55.71
6218;BME280;3142;48.206;11.550;2023-02-19T13:24:06;96381.84;;;12.06;55.24
6218;BME280;3142;48.206;11.550;2023-02-19T13:26:47;96387.31;;;12.11;55.91
6218;BME280;3142;48.206;11.550;2023-02-19T13:29:26;96379.22;;;12.06;55.51